Ridgecrest, Louisiana
Current Conditions -  °F | °C
As of 8:55 AM on Friday 19 Dec 2014 (Local Time) from KHEZ Reporting Station
Overcast Overcast  
Wind Chill: 45°   Ceiling: 4800
Heat Index: 48°   Visibility: 7mi
Dew Point: 46°   Wind: 7mph
Humidity: 93%   Direction: 90°E
Pressure: 30.17"   Gusts: NA
Location:  31.6488°N, 91.6098°W
Report Text: KHEZ 191455Z AUTO 09006KT 7SM SCT019 BKN048 OVC075 09/08 A3017 RMK AO1 P0003 60005 52017
Loading
Personal Weather Stations






























Interactive Weather Map New forecast layout! Learn more

10-Day Weather Forecast

Advertisements
Track Severe Weather on mobile